createdAt,value
2018-10-16T00:01:01.873Z,40.50
2018-10-16T00:02:06.300Z,40.60
2018-10-16T00:03:09.506Z,40.50
2018-10-16T00:04:13.030Z,40.50
2018-10-16T00:05:17.135Z,40.50
2018-10-16T00:06:21.047Z,40.50
2018-10-16T00:07:24.394Z,40.50
2018-10-16T00:08:27.437Z,40.50
2018-10-16T00:09:32.003Z,40.50
2018-10-16T00:10:40.455Z,40.50
2018-10-16T00:11:54.990Z,40.50
2018-10-16T00:12:58.438Z,40.50
2018-10-16T00:14:02.261Z,40.50
2018-10-16T00:15:09.063Z,40.50
2018-10-16T00:16:12.139Z,40.60
2018-10-16T00:17:18.256Z,40.70
2018-10-16T00:18:22.213Z,40.70
2018-10-16T00:19:25.945Z,40.70
2018-10-16T00:20:29.951Z,40.70
2018-10-16T00:21:33.071Z,40.70
2018-10-16T00:22:36.188Z,40.70
2018-10-16T00:23:41.085Z,40.70
2018-10-16T00:24:46.135Z,40.70
2018-10-16T00:25:50.356Z,40.60
2018-10-16T00:26:53.569Z,40.60
2018-10-16T00:27:56.710Z,40.70
2018-10-16T00:28:59.862Z,40.60
2018-10-16T00:30:04.554Z,40.60
2018-10-16T00:31:07.711Z,40.60
2018-10-16T00:32:10.852Z,40.60
2018-10-16T00:33:13.944Z,40.60
2018-10-16T00:34:17.231Z,40.70
2018-10-16T00:35:20.405Z,40.70
2018-10-16T00:36:24.374Z,40.70
2018-10-16T00:37:27.980Z,40.70
2018-10-16T00:38:31.091Z,40.70
2018-10-16T00:39:34.252Z,40.70
2018-10-16T00:40:37.551Z,40.70
2018-10-16T00:41:41.839Z,40.80
2018-10-16T00:42:45.606Z,40.70
2018-10-16T00:43:48.775Z,40.60
2018-10-16T00:44:51.945Z,40.60
2018-10-16T00:45:55.003Z,40.60
2018-10-16T00:46:58.815Z,40.60
2018-10-16T00:48:02.221Z,40.70
2018-10-16T00:49:05.346Z,40.70
2018-10-16T00:50:08.966Z,40.60
2018-10-16T00:51:12.594Z,40.60
2018-10-16T00:52:15.650Z,40.60
2018-10-16T00:53:18.703Z,40.60
2018-10-16T00:54:21.855Z,40.70
2018-10-16T00:55:24.886Z,40.60
2018-10-16T00:56:28.137Z,40.60
2018-10-16T00:57:32.007Z,40.60
2018-10-16T00:58:35.692Z,40.50
2018-10-16T00:59:38.779Z,40.60
2018-10-16T01:00:41.852Z,40.60
2018-10-16T01:01:45.100Z,40.50
2018-10-16T01:02:48.210Z,40.50
2018-10-16T01:03:51.786Z,40.50
2018-10-16T01:04:54.856Z,40.50
2018-10-16T01:05:58.014Z,40.50
2018-10-16T01:07:01.311Z,40.50
2018-10-16T01:08:04.347Z,40.50
2018-10-16T01:09:10.415Z,40.50
2018-10-16T01:10:14.233Z,40.50
2018-10-16T01:11:17.787Z,40.50
2018-10-16T01:12:20.916Z,40.50
2018-10-16T01:13:23.981Z,40.50
2018-10-16T01:14:27.608Z,40.50
2018-10-16T01:15:30.933Z,40.50
2018-10-16T01:16:34.249Z,40.60
2018-10-16T01:17:37.458Z,40.60
2018-10-16T01:18:40.527Z,40.60
2018-10-16T01:19:43.585Z,40.60
2018-10-16T01:20:46.971Z,40.60
2018-10-16T01:21:50.385Z,40.60
2018-10-16T01:22:54.211Z,40.60
2018-10-16T01:23:57.610Z,40.50
2018-10-16T01:25:00.987Z,40.50
2018-10-16T01:26:04.063Z,40.50
2018-10-16T01:27:09.397Z,41.20
2018-10-16T01:28:12.486Z,40.70
2018-10-16T01:29:16.261Z,40.70
2018-10-16T01:30:19.355Z,40.70
2018-10-16T01:31:22.810Z,40.70
2018-10-16T01:32:26.482Z,40.70
2018-10-16T01:33:29.635Z,40.60
2018-10-16T01:34:33.939Z,40.60
2018-10-16T01:35:37.072Z,40.60
2018-10-16T01:36:41.542Z,40.60
2018-10-16T01:37:45.135Z,40.60
2018-10-16T01:38:48.356Z,40.50
2018-10-16T01:39:51.414Z,40.60
2018-10-16T01:40:55.945Z,40.60
2018-10-16T01:41:59.371Z,40.60
2018-10-16T01:43:03.086Z,40.60
2018-10-16T01:44:06.274Z,40.60
2018-10-16T01:45:10.113Z,40.60
2018-10-16T01:46:13.387Z,40.60
2018-10-16T01:47:17.478Z,40.70
2018-10-16T01:48:21.160Z,40.60
2018-10-16T01:49:26.095Z,40.60
2018-10-16T01:50:29.704Z,40.60
2018-10-16T01:51:33.703Z,40.60
2018-10-16T01:52:37.181Z,40.60
2018-10-16T01:53:40.360Z,40.50
2018-10-16T01:54:43.470Z,40.60
2018-10-16T01:55:46.870Z,40.60
2018-10-16T01:56:50.066Z,40.60
2018-10-16T01:57:54.420Z,40.60
2018-10-16T01:58:57.513Z,40.60
2018-10-16T02:00:01.367Z,40.60
2018-10-16T02:01:05.430Z,40.60
2018-10-16T02:02:09.139Z,40.60
2018-10-16T02:03:12.204Z,40.60
2018-10-16T02:04:15.222Z,40.70
2018-10-16T02:05:18.658Z,40.60
2018-10-16T02:06:22.295Z,40.60
2018-10-16T02:07:25.798Z,40.70
2018-10-16T02:08:28.841Z,40.60
2018-10-16T02:09:32.418Z,40.60
2018-10-16T02:10:36.623Z,40.60
2018-10-16T02:11:40.493Z,40.60
2018-10-16T02:12:43.588Z,40.60
2018-10-16T02:13:47.956Z,40.60
2018-10-16T02:14:51.317Z,40.50
2018-10-16T02:15:55.012Z,40.60
2018-10-16T02:16:58.465Z,40.60
2018-10-16T02:18:01.536Z,40.60
2018-10-16T02:19:05.813Z,40.60
2018-10-16T02:20:09.919Z,40.60
2018-10-16T02:21:13.187Z,40.60
2018-10-16T02:22:17.314Z,40.50
2018-10-16T02:23:21.459Z,40.50
2018-10-16T02:24:24.535Z,40.50
2018-10-16T02:25:27.706Z,40.50
2018-10-16T02:26:30.957Z,40.50
2018-10-16T02:27:34.248Z,40.30
2018-10-16T02:28:37.516Z,40.50
2018-10-16T02:29:41.338Z,40.50
2018-10-16T02:30:44.404Z,40.50
2018-10-16T02:31:48.127Z,40.50
2018-10-16T02:32:51.985Z,40.50
2018-10-16T02:33:55.704Z,40.50
2018-10-16T02:34:58.795Z,40.50
2018-10-16T02:36:01.898Z,40.60
2018-10-16T02:37:07.025Z,40.50
2018-10-16T02:38:11.178Z,40.60
2018-10-16T02:39:15.016Z,40.50
2018-10-16T02:40:19.146Z,40.50
2018-10-16T02:41:22.477Z,40.50
2018-10-16T02:42:27.341Z,40.50
2018-10-16T02:43:31.305Z,40.50
2018-10-16T02:44:35.321Z,40.50
2018-10-16T02:45:38.929Z,40.60
2018-10-16T02:46:42.100Z,40.60
2018-10-16T02:47:45.644Z,40.60
2018-10-16T02:48:48.890Z,40.60
2018-10-16T02:49:52.051Z,40.60
2018-10-16T02:50:56.414Z,40.60
2018-10-16T02:52:00.231Z,40.60
2018-10-16T02:53:03.508Z,40.50
2018-10-16T02:54:07.407Z,40.50
2018-10-16T02:55:11.402Z,40.50
2018-10-16T02:56:14.784Z,40.50
2018-10-16T02:57:17.907Z,40.60
2018-10-16T02:58:21.692Z,40.60
2018-10-16T02:59:25.151Z,40.60
2018-10-16T03:00:28.279Z,40.60
2018-10-16T03:01:31.980Z,40.80
2018-10-16T03:02:35.096Z,40.60
2018-10-16T03:03:39.421Z,40.60
2018-10-16T03:04:44.939Z,40.50
2018-10-16T03:05:48.338Z,40.50
2018-10-16T03:06:51.505Z,40.50
2018-10-16T03:07:55.454Z,40.50
2018-10-16T03:08:59.170Z,40.50
2018-10-16T03:10:04.690Z,40.50
2018-10-16T03:11:09.051Z,40.50
2018-10-16T03:12:12.272Z,40.40
2018-10-16T03:13:15.995Z,40.40
2018-10-16T03:14:19.646Z,40.40
2018-10-16T03:15:22.818Z,40.30
2018-10-16T03:16:27.387Z,40.40
2018-10-16T03:17:30.952Z,40.50
2018-10-16T03:18:34.061Z,40.40
2018-10-16T03:19:37.266Z,40.40
2018-10-16T03:20:40.353Z,40.50
2018-10-16T03:21:43.370Z,40.50
2018-10-16T03:22:46.556Z,40.40
2018-10-16T03:23:50.071Z,40.50
2018-10-16T03:24:53.246Z,40.50
2018-10-16T03:25:57.042Z,40.50
2018-10-16T03:27:00.107Z,41.10
2018-10-16T03:28:03.705Z,40.40
2018-10-16T03:29:07.375Z,40.40
2018-10-16T03:30:11.531Z,40.40
2018-10-16T03:31:15.144Z,40.50
2018-10-16T03:32:18.832Z,40.40
2018-10-16T03:33:23.414Z,40.40
2018-10-16T03:34:26.466Z,40.30
2018-10-16T03:35:29.519Z,40.40
2018-10-16T03:36:34.584Z,40.40
2018-10-16T03:37:38.615Z,40.30
2018-10-16T03:38:41.634Z,41.00
2018-10-16T03:39:45.654Z,40.30
2018-10-16T03:40:49.479Z,40.30
2018-10-16T03:41:53.199Z,40.30
2018-10-16T03:42:56.564Z,40.30
2018-10-16T03:44:01.229Z,40.30
2018-10-16T03:45:04.919Z,40.30
2018-10-16T03:46:08.323Z,40.30
2018-10-16T03:47:11.360Z,40.90
2018-10-16T03:48:15.035Z,40.30
2018-10-16T03:49:19.463Z,40.30
2018-10-16T03:50:23.272Z,40.50
2018-10-16T03:51:26.326Z,40.30
2018-10-16T03:52:29.387Z,40.40
2018-10-16T03:53:32.431Z,40.40
2018-10-16T03:54:35.552Z,40.40
2018-10-16T03:55:38.631Z,41.00
2018-10-16T03:56:41.909Z,40.30
2018-10-16T03:57:44.975Z,40.40
2018-10-16T03:58:48.178Z,40.30
2018-10-16T03:59:51.195Z,40.40
2018-10-16T04:00:54.732Z,40.40
2018-10-16T04:01:58.504Z,40.40
2018-10-16T04:03:01.642Z,40.30
2018-10-16T04:04:06.114Z,40.40
2018-10-16T04:05:09.233Z,40.40
2018-10-16T04:06:13.247Z,40.30
2018-10-16T04:07:16.288Z,40.30
2018-10-16T04:08:19.414Z,40.40
2018-10-16T04:09:22.468Z,40.30
2018-10-16T04:10:25.875Z,40.40
2018-10-16T04:11:28.969Z,40.40
2018-10-16T04:12:32.122Z,40.30
2018-10-16T04:13:35.893Z,40.30
2018-10-16T04:14:39.292Z,40.30
2018-10-16T04:15:42.867Z,40.30
2018-10-16T04:16:45.957Z,40.40
2018-10-16T04:17:50.025Z,40.40
2018-10-16T04:18:53.872Z,40.30
2018-10-16T04:19:57.222Z,40.30
2018-10-16T04:21:00.275Z,40.30
2018-10-16T04:22:04.736Z,41.00
2018-10-16T04:23:08.314Z,40.30
2018-10-16T04:24:11.972Z,40.30
2018-10-16T04:25:15.096Z,40.30
2018-10-16T04:26:19.500Z,40.30
2018-10-16T04:27:23.718Z,40.40
2018-10-16T04:28:27.294Z,40.30
2018-10-16T04:29:30.996Z,40.40
2018-10-16T04:30:34.319Z,40.40
2018-10-16T04:31:39.939Z,40.30
2018-10-16T04:32:43.412Z,40.40
2018-10-16T04:33:46.851Z,40.40
2018-10-16T04:34:51.065Z,40.40
2018-10-16T04:35:54.139Z,40.40
2018-10-16T04:36:57.208Z,40.40
2018-10-16T04:38:00.626Z,40.40
2018-10-16T04:39:05.532Z,40.40
2018-10-16T04:40:09.855Z,40.40
2018-10-16T04:41:15.183Z,40.40
2018-10-16T04:42:20.272Z,40.40
2018-10-16T04:43:24.504Z,40.40
2018-10-16T04:44:28.243Z,40.40
2018-10-16T04:45:31.351Z,40.30
2018-10-16T04:46:34.530Z,40.40
2018-10-16T04:47:39.374Z,40.40
2018-10-16T04:48:42.723Z,40.40
2018-10-16T04:49:47.584Z,40.30
2018-10-16T04:50:54.451Z,40.30
2018-10-16T04:51:57.558Z,40.30
2018-10-16T04:53:01.091Z,40.30
2018-10-16T04:54:05.855Z,40.30
2018-10-16T04:55:10.154Z,40.30
2018-10-16T04:56:15.394Z,40.30
2018-10-16T04:57:19.321Z,40.30
2018-10-16T04:58:23.174Z,40.30
2018-10-16T04:59:27.330Z,40.30
2018-10-16T05:00:31.642Z,41.00
2018-10-16T05:01:35.983Z,40.30
2018-10-16T05:02:41.410Z,40.40
2018-10-16T05:03:45.340Z,40.40
2018-10-16T05:04:50.184Z,40.40
2018-10-16T05:05:53.368Z,40.40
2018-10-16T05:06:56.343Z,40.40
2018-10-16T05:07:59.379Z,40.40
2018-10-16T05:09:03.459Z,40.40
2018-10-16T05:10:07.295Z,40.40
2018-10-16T05:11:12.091Z,40.40
2018-10-16T05:12:16.689Z,41.00
2018-10-16T05:13:25.084Z,40.40
2018-10-16T05:14:28.583Z,40.40
2018-10-16T05:15:34.420Z,40.40
2018-10-16T05:16:38.948Z,40.40
2018-10-16T05:17:42.043Z,40.40
2018-10-16T05:18:47.478Z,40.40
2018-10-16T05:19:51.952Z,41.00
2018-10-16T05:20:55.226Z,40.30
2018-10-16T05:21:58.350Z,40.30
2018-10-16T05:23:01.475Z,40.30
2018-10-16T05:24:06.059Z,40.20
2018-10-16T05:25:09.214Z,40.20
2018-10-16T05:26:14.007Z,40.20
2018-10-16T05:27:17.186Z,40.30
2018-10-16T05:28:21.464Z,40.30
2018-10-16T05:29:24.721Z,40.30
2018-10-16T05:30:29.787Z,40.40
2018-10-16T05:31:33.021Z,40.30
2018-10-16T05:32:38.300Z,40.40
2018-10-16T05:33:41.804Z,40.40
2018-10-16T05:34:44.875Z,40.40
2018-10-16T05:35:50.429Z,40.30
2018-10-16T05:36:53.478Z,40.30
2018-10-16T05:37:57.267Z,40.40
2018-10-16T05:39:01.090Z,40.40
2018-10-16T05:40:05.443Z,40.40
2018-10-16T05:41:08.567Z,40.30
2018-10-16T05:42:12.752Z,40.30
2018-10-16T05:43:16.049Z,40.30
2018-10-16T05:44:19.268Z,40.30
2018-10-16T05:45:23.354Z,40.40
2018-10-16T05:46:26.976Z,40.30
2018-10-16T05:47:30.055Z,40.40
2018-10-16T05:48:33.077Z,40.40
2018-10-16T05:49:36.942Z,40.30
2018-10-16T05:50:40.800Z,40.30
2018-10-16T05:51:44.548Z,40.30
2018-10-16T05:52:48.055Z,40.20
2018-10-16T05:53:51.185Z,40.30
2018-10-16T05:54:54.985Z,40.20
2018-10-16T05:56:01.635Z,40.30
2018-10-16T05:57:05.602Z,40.30
2018-10-16T05:58:09.239Z,40.30
2018-10-16T05:59:14.057Z,40.40
2018-10-16T06:00:28.691Z,40.40
2018-10-16T06:01:32.966Z,40.30
2018-10-16T06:02:37.593Z,40.40
2018-10-16T06:03:40.731Z,40.40
2018-10-16T06:04:44.385Z,40.30
2018-10-16T06:05:49.093Z,40.40
2018-10-16T06:06:52.630Z,40.40
2018-10-16T06:07:55.996Z,40.30
2018-10-16T06:08:59.815Z,40.40
2018-10-16T06:10:03.055Z,40.30
2018-10-16T06:11:07.209Z,40.30
2018-10-16T06:12:10.892Z,40.30
2018-10-16T06:13:14.830Z,40.30
2018-10-16T06:14:18.047Z,40.30
2018-10-16T06:15:21.163Z,40.30
2018-10-16T06:16:24.382Z,40.30
2018-10-16T06:17:28.608Z,40.40
2018-10-16T06:18:31.653Z,40.40
2018-10-16T06:19:35.235Z,40.30
2018-10-16T06:20:38.341Z,40.40
2018-10-16T06:21:43.019Z,40.30
2018-10-16T06:22:46.125Z,40.30
2018-10-16T06:23:49.242Z,40.30
2018-10-16T06:24:52.693Z,40.20
2018-10-16T06:25:56.452Z,40.30
2018-10-16T06:27:00.524Z,40.20
2018-10-16T06:28:12.722Z,40.30
2018-10-16T06:29:16.339Z,40.30
2018-10-16T06:30:20.229Z,40.20
2018-10-16T06:31:24.219Z,40.30
2018-10-16T06:32:27.888Z,40.20
2018-10-16T06:33:32.698Z,40.20
2018-10-16T06:34:35.768Z,40.20
2018-10-16T06:35:38.793Z,40.30
2018-10-16T06:36:42.043Z,40.30
2018-10-16T06:37:45.145Z,40.30
2018-10-16T06:38:48.310Z,40.90
2018-10-16T06:39:51.921Z,40.30
2018-10-16T06:40:55.806Z,41.00
2018-10-16T06:41:58.738Z,40.30
2018-10-16T06:43:01.794Z,40.30
2018-10-16T06:44:06.375Z,40.30
2018-10-16T06:45:10.678Z,40.20
2018-10-16T06:46:14.739Z,40.40
2018-10-16T06:47:17.924Z,40.30
2018-10-16T06:48:21.251Z,40.30
2018-10-16T06:49:26.034Z,40.30
2018-10-16T06:50:29.330Z,40.30
2018-10-16T06:51:33.618Z,40.30
2018-10-16T06:52:38.062Z,40.40
2018-10-16T06:53:41.439Z,40.40
2018-10-16T06:54:44.780Z,40.40
2018-10-16T06:55:49.049Z,40.40
2018-10-16T06:56:52.435Z,40.40
2018-10-16T06:57:58.025Z,40.40
2018-10-16T06:59:01.847Z,40.50
2018-10-16T07:00:06.037Z,40.40
2018-10-16T07:01:09.106Z,40.50
2018-10-16T07:02:12.215Z,40.40
2018-10-16T07:03:15.388Z,40.50
2018-10-16T07:04:19.194Z,40.40
2018-10-16T07:05:22.836Z,40.50
2018-10-16T07:06:27.007Z,40.50
2018-10-16T07:07:30.071Z,40.50
2018-10-16T07:08:34.519Z,40.50
2018-10-16T07:09:38.768Z,40.50
2018-10-16T07:10:43.551Z,40.50
2018-10-16T07:11:46.915Z,40.50
2018-10-16T07:12:50.328Z,40.50
2018-10-16T07:13:54.003Z,40.50
2018-10-16T07:14:57.233Z,40.50
2018-10-16T07:16:00.212Z,40.50
2018-10-16T07:17:03.575Z,40.60
2018-10-16T07:18:06.629Z,40.90
2018-10-16T07:19:11.078Z,41.10
2018-10-16T07:20:15.375Z,41.30
2018-10-16T07:21:19.189Z,41.50
2018-10-16T07:22:22.107Z,41.70
2018-10-16T07:23:26.059Z,41.80
2018-10-16T07:24:29.572Z,42.00
2018-10-16T07:25:33.024Z,42.00
2018-10-16T07:26:36.064Z,42.00
2018-10-16T07:27:39.743Z,42.10
2018-10-16T07:28:42.828Z,42.20
2018-10-16T07:29:45.854Z,42.20
2018-10-16T07:30:48.986Z,42.20
2018-10-16T07:31:52.147Z,42.30
2018-10-16T07:32:55.333Z,42.30
2018-10-16T07:33:58.574Z,42.30
2018-10-16T07:35:01.675Z,42.20
2018-10-16T07:36:04.799Z,42.20
2018-10-16T07:37:07.885Z,42.20
2018-10-16T07:38:11.074Z,42.10
2018-10-16T07:39:14.364Z,42.10
2018-10-16T07:40:17.446Z,42.10
2018-10-16T07:41:20.534Z,42.10
2018-10-16T07:42:23.688Z,42.00
2018-10-16T07:43:26.930Z,42.00
2018-10-16T07:44:30.135Z,42.00
2018-10-16T07:45:33.231Z,41.90
2018-10-16T07:46:36.308Z,42.00
2018-10-16T07:47:39.310Z,41.90
2018-10-16T07:48:42.425Z,41.90
2018-10-16T07:49:45.469Z,41.90
2018-10-16T07:50:48.453Z,42.00
2018-10-16T07:51:51.545Z,42.00
2018-10-16T07:52:54.596Z,41.80
2018-10-16T07:53:57.822Z,41.70
2018-10-16T07:55:00.966Z,41.80
2018-10-16T07:56:03.999Z,41.90
2018-10-16T07:57:07.079Z,41.90
2018-10-16T07:58:10.100Z,41.80
2018-10-16T07:59:13.249Z,41.60
2018-10-16T08:00:16.323Z,41.90
2018-10-16T08:01:19.366Z,41.90
2018-10-16T08:02:22.453Z,42.50
2018-10-16T08:03:25.736Z,42.00
2018-10-16T08:04:28.868Z,41.90
2018-10-16T08:05:31.880Z,42.50
2018-10-16T08:06:34.932Z,42.00
2018-10-16T08:07:38.229Z,42.00
2018-10-16T08:08:41.335Z,42.00
2018-10-16T08:09:44.373Z,42.00
2018-10-16T08:10:47.591Z,41.90
2018-10-16T08:11:50.994Z,41.90
2018-10-16T08:12:54.086Z,42.00
2018-10-16T08:13:57.175Z,41.90
2018-10-16T08:15:00.248Z,42.10
2018-10-16T08:16:03.284Z,42.10
2018-10-16T08:17:06.693Z,42.50
2018-10-16T08:18:09.851Z,42.50
2018-10-16T08:19:13.119Z,41.70
2018-10-16T08:20:16.156Z,41.10
2018-10-16T08:21:19.573Z,40.60
2018-10-16T08:22:22.786Z,40.50
2018-10-16T08:23:25.974Z,40.30
2018-10-16T08:24:29.117Z,40.10
2018-10-16T08:25:32.298Z,40.20
2018-10-16T08:26:35.479Z,40.30
2018-10-16T08:27:38.533Z,40.20
2018-10-16T08:28:41.647Z,40.20
2018-10-16T08:29:44.814Z,40.30
2018-10-16T08:30:48.013Z,40.20
2018-10-16T08:31:51.026Z,40.30
2018-10-16T08:32:54.121Z,40.20
2018-10-16T08:33:57.285Z,40.70
2018-10-16T08:35:00.359Z,40.10
2018-10-16T08:36:03.441Z,40.10
2018-10-16T08:37:09.588Z,39.70
2018-10-16T08:39:37.130Z,40.70
2018-10-16T08:40:40.379Z,40.20
2018-10-16T08:41:54.987Z,40.10
2018-10-16T08:43:19.908Z,40.00
2018-10-16T08:45:34.097Z,40.00
2018-10-16T08:46:48.456Z,40.00
2018-10-16T08:48:02.940Z,40.10
2018-10-16T08:49:17.502Z,40.20
2018-10-16T08:50:32.848Z,40.40
2018-10-16T08:51:40.982Z,40.40
2018-10-16T08:52:44.097Z,40.60
2018-10-16T08:53:47.208Z,40.30
2018-10-16T08:54:50.351Z,39.70
2018-10-16T08:55:53.358Z,39.80
2018-10-16T08:56:56.543Z,39.80
2018-10-16T08:57:59.727Z,39.90
2018-10-16T08:59:03.090Z,39.80
2018-10-16T09:00:06.238Z,39.70
2018-10-16T09:01:09.342Z,39.80
2018-10-16T09:02:12.456Z,39.80
2018-10-16T09:03:15.630Z,39.00
2018-10-16T09:04:18.938Z,39.50
2018-10-16T09:05:21.935Z,39.60
2018-10-16T09:06:25.134Z,39.70
2018-10-16T09:07:28.278Z,39.80
2018-10-16T09:08:31.320Z,39.60
2018-10-16T09:09:34.495Z,39.70
2018-10-16T09:10:37.575Z,39.70
2018-10-16T09:11:42.398Z,39.90
2018-10-16T09:12:45.657Z,40.00
2018-10-16T09:13:48.743Z,39.90
2018-10-16T09:14:51.815Z,39.90
2018-10-16T09:15:54.915Z,39.80
2018-10-16T09:16:58.192Z,39.80
2018-10-16T09:18:01.386Z,40.00
2018-10-16T09:19:04.708Z,40.20
2018-10-16T09:20:08.053Z,40.20
2018-10-16T09:21:11.147Z,40.10
2018-10-16T09:22:14.239Z,39.80
2018-10-16T09:23:17.353Z,39.80
2018-10-16T09:24:20.539Z,39.80
2018-10-16T09:25:23.534Z,39.60
2018-10-16T09:26:26.691Z,39.50
2018-10-16T09:27:29.771Z,39.40
2018-10-16T09:28:33.410Z,39.50
2018-10-16T09:29:36.487Z,39.50
2018-10-16T09:30:39.557Z,39.40
2018-10-16T09:31:42.591Z,39.40
2018-10-16T09:32:45.644Z,39.40
2018-10-16T09:33:48.740Z,39.50
2018-10-16T09:34:51.880Z,39.70
2018-10-16T09:35:54.928Z,39.80
2018-10-16T09:36:57.970Z,39.70
2018-10-16T09:38:01.148Z,40.10
2018-10-16T09:39:06.713Z,39.80
2018-10-16T09:40:12.224Z,40.00
2018-10-16T09:41:15.348Z,39.80
2018-10-16T09:42:18.511Z,39.90
2018-10-16T09:43:21.523Z,40.00
2018-10-16T09:44:24.551Z,40.00
2018-10-16T09:45:27.606Z,39.90
2018-10-16T09:46:30.648Z,39.90
2018-10-16T09:47:33.756Z,39.90
2018-10-16T09:48:36.791Z,39.70
2018-10-16T09:49:40.088Z,39.80
2018-10-16T09:50:42.925Z,39.90
2018-10-16T09:51:46.107Z,40.00
2018-10-16T09:52:49.220Z,40.20
2018-10-16T09:53:52.380Z,40.20
2018-10-16T09:54:55.559Z,40.30
2018-10-16T09:55:58.969Z,40.20
2018-10-16T09:57:02.034Z,40.00
2018-10-16T09:58:05.321Z,39.70
2018-10-16T09:59:08.506Z,39.70
2018-10-16T10:00:17.119Z,39.80
2018-10-16T10:01:25.491Z,39.70
2018-10-16T10:02:28.781Z,39.80
2018-10-16T10:03:32.076Z,40.00
2018-10-16T10:04:35.175Z,40.10
2018-10-16T10:05:38.286Z,39.90
2018-10-16T10:06:41.479Z,39.80
2018-10-16T10:07:44.622Z,39.80
2018-10-16T10:08:47.654Z,39.50
2018-10-16T10:09:50.768Z,40.10
2018-10-16T10:10:53.825Z,39.90
2018-10-16T10:11:56.832Z,39.90
2018-10-16T10:12:59.948Z,39.90
2018-10-16T10:14:03.022Z,40.10
2018-10-16T10:15:06.020Z,40.10
2018-10-16T10:16:09.312Z,39.80
2018-10-16T10:17:12.472Z,39.60
2018-10-16T10:18:15.474Z,39.30
2018-10-16T10:19:18.573Z,39.10
2018-10-16T10:20:21.727Z,39.40
2018-10-16T10:21:24.744Z,39.20
2018-10-16T10:22:27.821Z,39.00
2018-10-16T10:23:31.078Z,39.00
2018-10-16T10:24:34.299Z,38.90
2018-10-16T10:25:37.478Z,38.90
2018-10-16T10:26:40.535Z,38.90
2018-10-16T10:27:43.620Z,38.60
2018-10-16T10:28:46.712Z,38.50
2018-10-16T10:29:49.945Z,38.50
2018-10-16T10:30:52.952Z,38.70
2018-10-16T10:31:56.015Z,38.90
2018-10-16T10:32:59.015Z,38.40
2018-10-16T10:34:02.100Z,38.80
2018-10-16T10:35:06.383Z,38.80
2018-10-16T10:36:09.821Z,38.70
2018-10-16T10:37:13.087Z,38.80
2018-10-16T10:38:16.410Z,39.00
2018-10-16T10:39:19.520Z,38.90
2018-10-16T10:40:22.633Z,38.90
2018-10-16T10:41:25.682Z,39.00
2018-10-16T10:42:28.708Z,39.10
2018-10-16T10:43:31.939Z,39.10
2018-10-16T10:44:35.025Z,39.10
2018-10-16T10:45:38.259Z,39.00
2018-10-16T10:46:41.365Z,38.90
2018-10-16T10:47:44.423Z,38.90
2018-10-16T10:48:47.499Z,38.70
2018-10-16T10:49:50.910Z,38.50
2018-10-16T10:50:54.106Z,38.60
2018-10-16T10:51:57.091Z,38.60
2018-10-16T10:53:00.220Z,38.70
2018-10-16T10:54:03.335Z,38.70
2018-10-16T10:55:07.050Z,38.90
2018-10-16T10:56:10.134Z,38.90
2018-10-16T10:57:13.341Z,38.90
2018-10-16T10:58:16.396Z,38.90
2018-10-16T10:59:19.511Z,39.00
2018-10-16T11:00:22.700Z,39.00
2018-10-16T11:01:25.839Z,39.00
2018-10-16T11:02:28.946Z,39.10
2018-10-16T11:03:32.245Z,39.10
2018-10-16T11:04:35.101Z,39.30
2018-10-16T11:05:38.131Z,39.70
2018-10-16T11:06:41.836Z,40.10
2018-10-16T11:07:44.880Z,40.70
2018-10-16T11:08:48.041Z,41.20
2018-10-16T11:09:51.088Z,40.90
2018-10-16T11:10:54.124Z,40.00
2018-10-16T11:11:57.599Z,40.70
2018-10-16T11:13:00.804Z,40.60
2018-10-16T11:14:03.914Z,40.20
2018-10-16T11:15:07.167Z,39.80
2018-10-16T11:16:10.240Z,39.50
2018-10-16T11:17:13.361Z,39.20
2018-10-16T11:18:16.387Z,39.00
2018-10-16T11:19:19.636Z,39.00
2018-10-16T11:20:23.116Z,39.20
2018-10-16T11:21:26.298Z,39.40
2018-10-16T11:22:29.591Z,39.30
2018-10-16T11:23:32.698Z,38.90
2018-10-16T11:24:35.996Z,38.90
2018-10-16T11:25:39.059Z,38.70
2018-10-16T11:26:42.056Z,38.80
2018-10-16T11:27:45.072Z,39.00
2018-10-16T11:28:48.064Z,39.00
2018-10-16T11:29:51.039Z,39.10
2018-10-16T11:30:54.179Z,39.20
2018-10-16T11:31:57.380Z,39.10
2018-10-16T11:33:00.496Z,39.10
2018-10-16T11:34:03.513Z,39.20
2018-10-16T11:35:06.899Z,39.20
2018-10-16T11:36:09.952Z,39.50
2018-10-16T11:37:13.075Z,39.90
2018-10-16T11:38:16.128Z,39.90
2018-10-16T11:39:19.318Z,39.90
2018-10-16T11:40:22.347Z,39.80
2018-10-16T11:41:25.423Z,39.80
2018-10-16T11:42:28.580Z,39.80
2018-10-16T11:43:31.642Z,39.90
2018-10-16T11:44:34.718Z,39.70
2018-10-16T11:45:37.876Z,39.60
2018-10-16T11:46:41.515Z,39.50
2018-10-16T11:47:44.542Z,39.60
2018-10-16T11:48:47.588Z,39.60
2018-10-16T11:49:50.620Z,39.40
2018-10-16T11:50:53.651Z,39.30
2018-10-16T11:51:56.731Z,38.80
2018-10-16T11:52:59.854Z,39.50
2018-10-16T11:54:02.926Z,39.60
2018-10-16T11:55:06.731Z,39.10
2018-10-16T11:56:09.912Z,39.80
2018-10-16T11:57:12.786Z,39.80
2018-10-16T11:58:15.846Z,40.00
2018-10-16T11:59:18.965Z,40.00
2018-10-16T12:00:24.369Z,40.10
2018-10-16T12:01:27.523Z,40.00
2018-10-16T12:02:30.534Z,40.00
2018-10-16T12:03:33.617Z,40.00
2018-10-16T12:04:36.638Z,39.90
2018-10-16T12:05:39.720Z,40.00
2018-10-16T12:06:43.212Z,40.00
2018-10-16T12:07:46.439Z,40.00
2018-10-16T12:08:49.468Z,40.50
2018-10-16T12:09:52.520Z,39.70
2018-10-16T12:10:55.567Z,39.80
2018-10-16T12:11:58.605Z,39.70
2018-10-16T12:13:01.723Z,39.70
2018-10-16T12:14:05.699Z,39.60
2018-10-16T12:15:08.731Z,39.50
2018-10-16T12:16:11.769Z,39.50
2018-10-16T12:17:21.372Z,39.60
2018-10-16T12:18:31.387Z,39.60
2018-10-16T12:19:38.026Z,39.70
2018-10-16T12:20:46.396Z,39.70
2018-10-16T12:21:49.442Z,39.40
2018-10-16T12:22:52.576Z,39.50
2018-10-16T12:23:55.684Z,39.50
2018-10-16T12:24:58.838Z,39.50
2018-10-16T12:26:01.916Z,39.40
2018-10-16T12:27:05.088Z,39.40
2018-10-16T12:28:08.188Z,39.40
2018-10-16T12:29:11.153Z,39.40
2018-10-16T12:30:14.243Z,39.60
2018-10-16T12:31:17.295Z,39.10
2018-10-16T12:32:20.477Z,39.80
2018-10-16T12:33:23.435Z,39.70
2018-10-16T12:34:26.488Z,39.60
2018-10-16T12:35:29.514Z,39.60
2018-10-16T12:36:32.563Z,39.40
2018-10-16T12:37:35.531Z,39.40
2018-10-16T12:38:38.704Z,39.40
2018-10-16T12:39:41.782Z,39.50
2018-10-16T12:40:44.731Z,39.30
2018-10-16T12:41:47.750Z,39.30
2018-10-16T12:42:50.914Z,39.20
2018-10-16T12:43:54.048Z,39.20
2018-10-16T12:44:57.069Z,39.30
2018-10-16T12:46:00.278Z,39.30
2018-10-16T12:47:04.236Z,39.40
2018-10-16T12:48:08.055Z,39.50
2018-10-16T12:49:11.950Z,39.50
2018-10-16T12:50:16.328Z,39.50
2018-10-16T12:51:19.983Z,39.60
2018-10-16T12:52:23.003Z,39.60
2018-10-16T12:53:26.280Z,39.60
2018-10-16T12:54:29.494Z,39.50
2018-10-16T12:55:32.556Z,39.40
2018-10-16T12:56:35.595Z,39.40
2018-10-16T12:57:38.744Z,39.40
2018-10-16T12:58:41.754Z,39.30
2018-10-16T12:59:44.833Z,39.40
2018-10-16T13:00:48.091Z,39.40
2018-10-16T13:01:51.197Z,39.50
2018-10-16T13:02:54.251Z,39.50
2018-10-16T13:03:57.268Z,39.50
2018-10-16T13:05:00.393Z,39.50
2018-10-16T13:06:03.399Z,39.50
2018-10-16T13:07:13.662Z,39.50
2018-10-16T13:08:16.827Z,39.40
2018-10-16T13:09:19.852Z,39.30
2018-10-16T13:10:22.984Z,39.40
2018-10-16T13:11:25.972Z,39.60
2018-10-16T13:12:29.060Z,39.70
2018-10-16T13:13:32.036Z,39.80
2018-10-16T13:14:35.096Z,39.90
2018-10-16T13:15:38.091Z,39.90
2018-10-16T13:16:41.050Z,39.90
2018-10-16T13:17:44.068Z,39.90
2018-10-16T13:18:47.038Z,40.00
2018-10-16T13:19:50.087Z,40.10
2018-10-16T13:20:53.164Z,39.70
2018-10-16T13:21:56.314Z,39.80
2018-10-16T13:22:59.254Z,40.00
2018-10-16T13:24:02.359Z,39.90
2018-10-16T13:25:06.416Z,39.70
2018-10-16T13:26:09.558Z,39.80
2018-10-16T13:27:12.724Z,39.70
2018-10-16T13:28:15.784Z,39.60
2018-10-16T13:29:19.021Z,39.50
2018-10-16T13:30:22.044Z,39.70
2018-10-16T13:31:25.288Z,39.10
2018-10-16T13:32:28.260Z,39.00
2018-10-16T13:33:31.435Z,39.10
2018-10-16T13:34:34.534Z,39.30
2018-10-16T13:35:37.559Z,39.30
2018-10-16T13:36:40.730Z,39.40
2018-10-16T13:37:44.388Z,39.30
2018-10-16T13:38:47.491Z,39.30
2018-10-16T13:39:50.551Z,39.30
2018-10-16T13:40:53.584Z,39.50
2018-10-16T13:41:56.615Z,39.70
2018-10-16T13:42:59.741Z,39.80